sensor_id;sensor_type;location;lat;lon;timestamp;temperature;humidity
74294;DHT22;64044;59.904;10.738;2024-02-26T00:01:43;7.10;75.50
74294;DHT22;64044;59.904;10.738;2024-02-26T00:04:12;7.00;76.10
74294;DHT22;64044;59.904;10.738;2024-02-26T00:06:38;7.10;75.30
74294;DHT22;64044;59.904;10.738;2024-02-26T00:09:09;7.00;75.30
74294;DHT22;64044;59.904;10.738;2024-02-26T00:11:38;7.00;75.20
74294;DHT22;64044;59.904;10.738;2024-02-26T00:14:04;7.00;75.20
74294;DHT22;64044;59.904;10.738;2024-02-26T00:16:30;7.00;75.20
74294;DHT22;64044;59.904;10.738;2024-02-26T00:18:56;7.00;75.30
74294;DHT22;64044;59.904;10.738;2024-02-26T00:21:21;6.90;75.30
74294;DHT22;64044;59.904;10.738;2024-02-26T00:23:49;6.90;75.50
74294;DHT22;64044;59.904;10.738;2024-02-26T00:26:16;6.90;75.50
74294;DHT22;64044;59.904;10.738;2024-02-26T00:28:41;6.90;75.60
74294;DHT22;64044;59.904;10.738;2024-02-26T00:31:07;6.90;75.60
74294;DHT22;64044;59.904;10.738;2024-02-26T00:33:33;6.90;75.70
74294;DHT22;64044;59.904;10.738;2024-02-26T00:35:58;6.90;75.90
74294;DHT22;64044;59.904;10.738;2024-02-26T00:38:24;6.90;76.00
74294;DHT22;64044;59.904;10.738;2024-02-26T00:40:50;6.90;76.00
74294;DHT22;64044;59.904;10.738;2024-02-26T00:43:15;6.90;76.10
74294;DHT22;64044;59.904;10.738;2024-02-26T00:45:41;6.90;76.00
74294;DHT22;64044;59.904;10.738;2024-02-26T00:48:07;6.90;76.00
74294;DHT22;64044;59.904;10.738;2024-02-26T00:50:36;6.90;76.00
74294;DHT22;64044;59.904;10.738;2024-02-26T00:53:02;6.90;76.10
74294;DHT22;64044;59.904;10.738;2024-02-26T00:55:27;6.90;76.20
74294;DHT22;64044;59.904;10.738;2024-02-26T00:57:53;6.90;76.30
74294;DHT22;64044;59.904;10.738;2024-02-26T01:00:19;6.90;76.40
74294;DHT22;64044;59.904;10.738;2024-02-26T01:02:45;6.90;76.50
74294;DHT22;64044;59.904;10.738;2024-02-26T01:05:14;6.90;76.60
74294;DHT22;64044;59.904;10.738;2024-02-26T01:07:40;6.90;76.50
74294;DHT22;64044;59.904;10.738;2024-02-26T01:10:09;6.90;76.60
74294;DHT22;64044;59.904;10.738;2024-02-26T01:12:35;7.00;76.80
74294;DHT22;64044;59.904;10.738;2024-02-26T01:15:02;7.00;76.70
74294;DHT22;64044;59.904;10.738;2024-02-26T01:17:28;7.00;76.50
74294;DHT22;64044;59.904;10.738;2024-02-26T01:19:54;6.90;76.30
74294;DHT22;64044;59.904;10.738;2024-02-26T01:22:20;7.00;76.10
74294;DHT22;64044;59.904;10.738;2024-02-26T01:24:45;7.00;76.10
74294;DHT22;64044;59.904;10.738;2024-02-26T01:27:11;7.00;76.10
74294;DHT22;64044;59.904;10.738;2024-02-26T01:29:37;7.00;76.20
74294;DHT22;64044;59.904;10.738;2024-02-26T01:32:03;6.90;76.30
74294;DHT22;64044;59.904;10.738;2024-02-26T01:34:31;6.90;76.50
74294;DHT22;64044;59.904;10.738;2024-02-26T01:36:57;6.90;76.60
74294;DHT22;64044;59.904;10.738;2024-02-26T01:39:48;6.90;76.60
74294;DHT22;64044;59.904;10.738;2024-02-26T01:42:13;6.90;76.60
74294;DHT22;64044;59.904;10.738;2024-02-26T01:44:39;6.90;76.70
74294;DHT22;64044;59.904;10.738;2024-02-26T01:47:11;6.90;76.70
74294;DHT22;64044;59.904;10.738;2024-02-26T01:49:38;6.90;76.90
74294;DHT22;64044;59.904;10.738;2024-02-26T01:52:06;6.90;76.70
74294;DHT22;64044;59.904;10.738;2024-02-26T01:54:37;6.90;76.80
74294;DHT22;64044;59.904;10.738;2024-02-26T01:57:05;6.90;76.90
74294;DHT22;64044;59.904;10.738;2024-02-26T01:59:32;6.90;76.90
74294;DHT22;64044;59.904;10.738;2024-02-26T02:02:00;6.90;76.90
74294;DHT22;64044;59.904;10.738;2024-02-26T02:04:28;6.90;77.00
74294;DHT22;64044;59.904;10.738;2024-02-26T02:06:54;6.90;76.90
74294;DHT22;64044;59.904;10.738;2024-02-26T02:09:20;6.90;76.90
74294;DHT22;64044;59.904;10.738;2024-02-26T02:11:46;6.90;76.90
74294;DHT22;64044;59.904;10.738;2024-02-26T02:14:14;6.90;77.00
74294;DHT22;64044;59.904;10.738;2024-02-26T02:16:39;6.90;77.00
74294;DHT22;64044;59.904;10.738;2024-02-26T02:19:05;6.90;77.10
74294;DHT22;64044;59.904;10.738;2024-02-26T02:21:31;6.90;77.10
74294;DHT22;64044;59.904;10.738;2024-02-26T02:23:57;6.90;77.10
74294;DHT22;64044;59.904;10.738;2024-02-26T02:26:22;6.90;77.20
74294;DHT22;64044;59.904;10.738;2024-02-26T02:28:49;6.90;77.90
74294;DHT22;64044;59.904;10.738;2024-02-26T02:31:15;6.90;77.20
74294;DHT22;64044;59.904;10.738;2024-02-26T02:33:41;6.90;77.10
74294;DHT22;64044;59.904;10.738;2024-02-26T02:36:07;6.90;77.10
74294;DHT22;64044;59.904;10.738;2024-02-26T02:38:36;6.90;77.10
74294;DHT22;64044;59.904;10.738;2024-02-26T02:41:02;6.90;77.00
74294;DHT22;64044;59.904;10.738;2024-02-26T02:43:28;6.90;76.90
74294;DHT22;64044;59.904;10.738;2024-02-26T02:45:53;6.90;76.90
74294;DHT22;64044;59.904;10.738;2024-02-26T02:48:19;6.90;76.80
74294;DHT22;64044;59.904;10.738;2024-02-26T02:50:45;6.90;76.90
74294;DHT22;64044;59.904;10.738;2024-02-26T02:53:11;6.90;76.90
74294;DHT22;64044;59.904;10.738;2024-02-26T02:55:37;6.90;76.90
74294;DHT22;64044;59.904;10.738;2024-02-26T02:58:02;6.90;76.90
74294;DHT22;64044;59.904;10.738;2024-02-26T03:00:28;6.90;77.00
74294;DHT22;64044;59.904;10.738;2024-02-26T03:02:54;6.80;77.00
74294;DHT22;64044;59.904;10.738;2024-02-26T03:05:19;6.80;77.00
74294;DHT22;64044;59.904;10.738;2024-02-26T03:10:52;6.90;77.40
74294;DHT22;64044;59.904;10.738;2024-02-26T03:13:17;6.90;77.10
74294;DHT22;64044;59.904;10.738;2024-02-26T03:15:43;6.90;77.10
74294;DHT22;64044;59.904;10.738;2024-02-26T03:18:09;6.90;77.10
74294;DHT22;64044;59.904;10.738;2024-02-26T03:20:34;6.90;77.10
74294;DHT22;64044;59.904;10.738;2024-02-26T03:23:00;6.90;77.10
74294;DHT22;64044;59.904;10.738;2024-02-26T03:25:26;6.90;77.10
74294;DHT22;64044;59.904;10.738;2024-02-26T03:27:51;6.90;77.20
74294;DHT22;64044;59.904;10.738;2024-02-26T03:30:17;6.90;77.10
74294;DHT22;64044;59.904;10.738;2024-02-26T03:32:43;6.90;77.10
74294;DHT22;64044;59.904;10.738;2024-02-26T03:35:09;6.90;77.00
74294;DHT22;64044;59.904;10.738;2024-02-26T03:37:34;6.90;76.90
74294;DHT22;64044;59.904;10.738;2024-02-26T03:40:00;6.90;76.90
74294;DHT22;64044;59.904;10.738;2024-02-26T03:42:27;6.90;76.80
74294;DHT22;64044;59.904;10.738;2024-02-26T03:44:52;6.90;76.70
74294;DHT22;64044;59.904;10.738;2024-02-26T03:47:18;6.90;76.70
74294;DHT22;64044;59.904;10.738;2024-02-26T03:49:44;6.90;76.70
74294;DHT22;64044;59.904;10.738;2024-02-26T03:52:10;6.90;76.60
74294;DHT22;64044;59.904;10.738;2024-02-26T03:54:35;6.90;76.60
74294;DHT22;64044;59.904;10.738;2024-02-26T03:57:01;6.80;76.40
74294;DHT22;64044;59.904;10.738;2024-02-26T03:59:27;6.80;76.40
74294;DHT22;64044;59.904;10.738;2024-02-26T04:01:52;6.80;76.40
74294;DHT22;64044;59.904;10.738;2024-02-26T04:04:18;6.80;76.50
74294;DHT22;64044;59.904;10.738;2024-02-26T04:06:45;6.70;76.70
74294;DHT22;64044;59.904;10.738;2024-02-26T04:09:13;6.70;76.80
74294;DHT22;64044;59.904;10.738;2024-02-26T04:11:39;6.70;76.90
74294;DHT22;64044;59.904;10.738;2024-02-26T04:14:05;6.70;77.00
74294;DHT22;64044;59.904;10.738;2024-02-26T04:16:34;6.70;77.00
74294;DHT22;64044;59.904;10.738;2024-02-26T04:19:01;6.70;77.00
74294;DHT22;64044;59.904;10.738;2024-02-26T04:21:26;6.70;77.00
74294;DHT22;64044;59.904;10.738;2024-02-26T04:23:52;6.70;76.80
74294;DHT22;64044;59.904;10.738;2024-02-26T04:26:20;6.70;76.80
74294;DHT22;64044;59.904;10.738;2024-02-26T04:28:47;6.70;76.70
74294;DHT22;64044;59.904;10.738;2024-02-26T04:31:12;6.70;76.50
74294;DHT22;64044;59.904;10.738;2024-02-26T04:33:38;6.70;76.40
74294;DHT22;64044;59.904;10.738;2024-02-26T04:36:04;6.70;76.20
74294;DHT22;64044;59.904;10.738;2024-02-26T04:38:30;6.70;76.20
74294;DHT22;64044;59.904;10.738;2024-02-26T04:40:56;6.70;76.10
74294;DHT22;64044;59.904;10.738;2024-02-26T04:43:21;6.70;75.90
74294;DHT22;64044;59.904;10.738;2024-02-26T04:45:47;6.70;75.90
74294;DHT22;64044;59.904;10.738;2024-02-26T04:48:13;6.70;75.60
74294;DHT22;64044;59.904;10.738;2024-02-26T04:50:39;6.70;75.40
74294;DHT22;64044;59.904;10.738;2024-02-26T04:53:05;6.70;75.20
74294;DHT22;64044;59.904;10.738;2024-02-26T04:55:30;6.70;75.10
74294;DHT22;64044;59.904;10.738;2024-02-26T04:57:56;6.70;75.00
74294;DHT22;64044;59.904;10.738;2024-02-26T05:00:22;6.70;75.00
74294;DHT22;64044;59.904;10.738;2024-02-26T05:02:47;6.70;74.80
74294;DHT22;64044;59.904;10.738;2024-02-26T05:05:14;6.70;74.80
74294;DHT22;64044;59.904;10.738;2024-02-26T05:07:40;6.70;74.70
74294;DHT22;64044;59.904;10.738;2024-02-26T05:10:07;6.70;74.50
74294;DHT22;64044;59.904;10.738;2024-02-26T05:12:33;6.60;75.20
74294;DHT22;64044;59.904;10.738;2024-02-26T05:15:01;6.60;74.30
74294;DHT22;64044;59.904;10.738;2024-02-26T05:17:27;6.60;74.20
74294;DHT22;64044;59.904;10.738;2024-02-26T05:19:53;6.60;74.20
74294;DHT22;64044;59.904;10.738;2024-02-26T05:22:19;6.60;74.20
74294;DHT22;64044;59.904;10.738;2024-02-26T05:24:45;6.60;74.10
74294;DHT22;64044;59.904;10.738;2024-02-26T05:27:10;6.60;74.00
74294;DHT22;64044;59.904;10.738;2024-02-26T05:29:37;6.60;73.90
74294;DHT22;64044;59.904;10.738;2024-02-26T05:32:04;6.60;73.70
74294;DHT22;64044;59.904;10.738;2024-02-26T05:34:30;6.50;73.60
74294;DHT22;64044;59.904;10.738;2024-02-26T05:36:56;6.50;73.40
74294;DHT22;64044;59.904;10.738;2024-02-26T05:39:21;6.50;73.30
74294;DHT22;64044;59.904;10.738;2024-02-26T05:41:47;6.50;73.20
74294;DHT22;64044;59.904;10.738;2024-02-26T05:44:15;6.40;73.20
74294;DHT22;64044;59.904;10.738;2024-02-26T05:46:41;6.40;73.00
74294;DHT22;64044;59.904;10.738;2024-02-26T05:49:07;6.40;73.00
74294;DHT22;64044;59.904;10.738;2024-02-26T05:51:33;6.30;72.90
74294;DHT22;64044;59.904;10.738;2024-02-26T05:53:59;6.30;72.70
74294;DHT22;64044;59.904;10.738;2024-02-26T05:56:24;6.30;72.80
74294;DHT22;64044;59.904;10.738;2024-02-26T05:58:50;6.30;72.80
74294;DHT22;64044;59.904;10.738;2024-02-26T06:01:17;6.20;72.70
74294;DHT22;64044;59.904;10.738;2024-02-26T06:03:44;6.20;72.90
74294;DHT22;64044;59.904;10.738;2024-02-26T06:06:10;6.20;72.80
74294;DHT22;64044;59.904;10.738;2024-02-26T06:08:36;6.20;72.80
74294;DHT22;64044;59.904;10.738;2024-02-26T06:11:06;6.20;72.70
74294;DHT22;64044;59.904;10.738;2024-02-26T06:13:33;6.10;72.60
74294;DHT22;64044;59.904;10.738;2024-02-26T06:15:58;6.10;72.50
74294;DHT22;64044;59.904;10.738;2024-02-26T06:18:24;6.10;72.60
74294;DHT22;64044;59.904;10.738;2024-02-26T06:20:50;6.10;72.70
74294;DHT22;64044;59.904;10.738;2024-02-26T06:23:16;6.10;72.70
74294;DHT22;64044;59.904;10.738;2024-02-26T06:25:41;6.10;72.50
74294;DHT22;64044;59.904;10.738;2024-02-26T06:28:08;6.10;72.40
74294;DHT22;64044;59.904;10.738;2024-02-26T06:30:34;6.10;72.60
74294;DHT22;64044;59.904;10.738;2024-02-26T06:33:00;6.00;72.50
74294;DHT22;64044;59.904;10.738;2024-02-26T06:35:26;6.00;72.40
74294;DHT22;64044;59.904;10.738;2024-02-26T06:37:52;6.00;72.40
74294;DHT22;64044;59.904;10.738;2024-02-26T06:40:21;6.00;72.40
74294;DHT22;64044;59.904;10.738;2024-02-26T06:42:47;6.00;72.40
74294;DHT22;64044;59.904;10.738;2024-02-26T06:45:13;6.00;72.30
74294;DHT22;64044;59.904;10.738;2024-02-26T06:47:39;5.90;72.30
74294;DHT22;64044;59.904;10.738;2024-02-26T06:50:04;5.90;72.20
74294;DHT22;64044;59.904;10.738;2024-02-26T06:52:30;5.90;72.30
74294;DHT22;64044;59.904;10.738;2024-02-26T06:54:56;5.90;72.30
74294;DHT22;64044;59.904;10.738;2024-02-26T06:57:22;5.90;72.30
74294;DHT22;64044;59.904;10.738;2024-02-26T06:59:47;5.90;72.30
74294;DHT22;64044;59.904;10.738;2024-02-26T07:02:14;5.90;72.40
74294;DHT22;64044;59.904;10.738;2024-02-26T07:04:39;5.90;72.40
74294;DHT22;64044;59.904;10.738;2024-02-26T07:07:07;5.90;72.30
74294;DHT22;64044;59.904;10.738;2024-02-26T07:09:35;5.80;72.20
74294;DHT22;64044;59.904;10.738;2024-02-26T07:12:01;5.90;72.30
74294;DHT22;64044;59.904;10.738;2024-02-26T07:14:27;5.90;72.30
74294;DHT22;64044;59.904;10.738;2024-02-26T07:16:52;5.80;72.10
74294;DHT22;64044;59.904;10.738;2024-02-26T07:19:18;5.80;72.20
74294;DHT22;64044;59.904;10.738;2024-02-26T07:21:44;5.80;72.10
74294;DHT22;64044;59.904;10.738;2024-02-26T07:24:10;5.80;72.20
74294;DHT22;64044;59.904;10.738;2024-02-26T07:26:35;5.80;72.20
74294;DHT22;64044;59.904;10.738;2024-02-26T07:29:01;5.80;72.20
74294;DHT22;64044;59.904;10.738;2024-02-26T07:31:27;5.80;72.20
74294;DHT22;64044;59.904;10.738;2024-02-26T07:33:52;5.90;72.40
74294;DHT22;64044;59.904;10.738;2024-02-26T07:36:18;5.90;72.30
74294;DHT22;64044;59.904;10.738;2024-02-26T07:38:44;5.80;72.30
74294;DHT22;64044;59.904;10.738;2024-02-26T07:41:10;5.90;72.40
74294;DHT22;64044;59.904;10.738;2024-02-26T07:43:36;5.90;72.30
74294;DHT22;64044;59.904;10.738;2024-02-26T07:46:02;5.90;72.40
74294;DHT22;64044;59.904;10.738;2024-02-26T07:48:28;5.90;72.30
74294;DHT22;64044;59.904;10.738;2024-02-26T07:50:54;6.00;72.30
74294;DHT22;64044;59.904;10.738;2024-02-26T07:53:19;6.00;72.30
74294;DHT22;64044;59.904;10.738;2024-02-26T07:55:45;6.10;72.20
74294;DHT22;64044;59.904;10.738;2024-02-26T07:58:11;6.10;72.00
74294;DHT22;64044;59.904;10.738;2024-02-26T08:00:36;6.10;72.00
74294;DHT22;64044;59.904;10.738;2024-02-26T08:03:02;6.10;72.00
74294;DHT22;64044;59.904;10.738;2024-02-26T08:05:28;6.20;72.00
74294;DHT22;64044;59.904;10.738;2024-02-26T08:07:54;6.30;71.80
74294;DHT22;64044;59.904;10.738;2024-02-26T08:10:20;6.30;71.70
74294;DHT22;64044;59.904;10.738;2024-02-26T08:12:46;6.30;71.60
74294;DHT22;64044;59.904;10.738;2024-02-26T08:15:11;6.40;71.10
74294;DHT22;64044;59.904;10.738;2024-02-26T08:17:37;6.40;71.10
74294;DHT22;64044;59.904;10.738;2024-02-26T08:20:04;6.40;70.80
74294;DHT22;64044;59.904;10.738;2024-02-26T08:22:29;6.40;70.70
74294;DHT22;64044;59.904;10.738;2024-02-26T08:24:55;6.30;70.60
74294;DHT22;64044;59.904;10.738;2024-02-26T08:27:46;6.30;70.50
74294;DHT22;64044;59.904;10.738;2024-02-26T08:30:13;6.20;70.30
74294;DHT22;64044;59.904;10.738;2024-02-26T08:32:45;6.20;70.60
74294;DHT22;64044;59.904;10.738;2024-02-26T08:35:11;6.20;70.70
74294;DHT22;64044;59.904;10.738;2024-02-26T08:37:37;6.10;70.70
74294;DHT22;64044;59.904;10.738;2024-02-26T08:40:03;6.10;70.50
74294;DHT22;64044;59.904;10.738;2024-02-26T08:42:29;6.00;70.10
74294;DHT22;64044;59.904;10.738;2024-02-26T08:44:55;6.00;70.40
74294;DHT22;64044;59.904;10.738;2024-02-26T08:47:21;6.00;70.30
74294;DHT22;64044;59.904;10.738;2024-02-26T08:49:47;6.00;70.50
74294;DHT22;64044;59.904;10.738;2024-02-26T08:52:12;5.90;70.60
74294;DHT22;64044;59.904;10.738;2024-02-26T08:54:39;5.90;70.80
74294;DHT22;64044;59.904;10.738;2024-02-26T08:57:06;5.90;70.70
74294;DHT22;64044;59.904;10.738;2024-02-26T08:59:31;5.80;70.70
74294;DHT22;64044;59.904;10.738;2024-02-26T09:01:57;5.90;70.90
74294;DHT22;64044;59.904;10.738;2024-02-26T09:04:23;5.90;71.00
74294;DHT22;64044;59.904;10.738;2024-02-26T09:06:48;5.80;70.90
74294;DHT22;64044;59.904;10.738;2024-02-26T09:09:14;5.90;71.00
74294;DHT22;64044;59.904;10.738;2024-02-26T09:11:40;5.90;71.10
74294;DHT22;64044;59.904;10.738;2024-02-26T09:14:06;5.90;71.20
74294;DHT22;64044;59.904;10.738;2024-02-26T09:16:31;5.90;71.10
74294;DHT22;64044;59.904;10.738;2024-02-26T09:18:57;6.00;71.30
74294;DHT22;64044;59.904;10.738;2024-02-26T09:21:23;6.00;71.30
74294;DHT22;64044;59.904;10.738;2024-02-26T09:23:50;6.10;71.60
74294;DHT22;64044;59.904;10.738;2024-02-26T09:26:16;6.20;71.70
74294;DHT22;64044;59.904;10.738;2024-02-26T09:28:42;6.30;71.90
74294;DHT22;64044;59.904;10.738;2024-02-26T09:31:08;6.40;71.90
74294;DHT22;64044;59.904;10.738;2024-02-26T09:33:35;6.50;71.70
74294;DHT22;64044;59.904;10.738;2024-02-26T09:36:00;6.60;71.50
74294;DHT22;64044;59.904;10.738;2024-02-26T09:38:27;6.70;71.20
74294;DHT22;64044;59.904;10.738;2024-02-26T09:40:53;6.80;71.00
74294;DHT22;64044;59.904;10.738;2024-02-26T09:43:22;6.90;70.90
74294;DHT22;64044;59.904;10.738;2024-02-26T09:45:53;7.00;70.70
74294;DHT22;64044;59.904;10.738;2024-02-26T09:48:19;7.10;70.30
74294;DHT22;64044;59.904;10.738;2024-02-26T09:50:46;7.20;70.00
74294;DHT22;64044;59.904;10.738;2024-02-26T09:53:12;7.30;69.90
74294;DHT22;64044;59.904;10.738;2024-02-26T09:55:40;7.30;69.40
74294;DHT22;64044;59.904;10.738;2024-02-26T09:58:10;7.40;69.50
74294;DHT22;64044;59.904;10.738;2024-02-26T10:00:37;7.40;69.30
74294;DHT22;64044;59.904;10.738;2024-02-26T10:03:06;7.50;69.10
74294;DHT22;64044;59.904;10.738;2024-02-26T10:05:34;7.50;69.00
74294;DHT22;64044;59.904;10.738;2024-02-26T10:08:01;7.50;68.50
74294;DHT22;64044;59.904;10.738;2024-02-26T10:10:29;7.60;68.20
74294;DHT22;64044;59.904;10.738;2024-02-26T10:12:55;7.60;68.20
74294;DHT22;64044;59.904;10.738;2024-02-26T10:15:20;7.70;68.50
74294;DHT22;64044;59.904;10.738;2024-02-26T10:17:46;7.70;68.00
74294;DHT22;64044;59.904;10.738;2024-02-26T10:20:18;7.80;67.80
74294;DHT22;64044;59.904;10.738;2024-02-26T10:22:47;7.90;67.90
74294;DHT22;64044;59.904;10.738;2024-02-26T10:25:13;7.90;68.20
74294;DHT22;64044;59.904;10.738;2024-02-26T10:27:40;8.10;68.30
74294;DHT22;64044;59.904;10.738;2024-02-26T10:30:21;8.20;68.00
74294;DHT22;64044;59.904;10.738;2024-02-26T10:32:49;8.20;67.00
74294;DHT22;64044;59.904;10.738;2024-02-26T10:35:16;8.30;67.80
74294;DHT22;64044;59.904;10.738;2024-02-26T10:37:43;8.40;67.10
74294;DHT22;64044;59.904;10.738;2024-02-26T10:40:14;8.50;67.10
74294;DHT22;64044;59.904;10.738;2024-02-26T10:42:41;8.60;66.90
74294;DHT22;64044;59.904;10.738;2024-02-26T10:45:08;8.70;66.90
74294;DHT22;64044;59.904;10.738;2024-02-26T10:47:37;8.80;66.40
74294;DHT22;64044;59.904;10.738;2024-02-26T10:50:04;8.90;66.40
74294;DHT22;64044;59.904;10.738;2024-02-26T10:52:34;9.00;66.30
74294;DHT22;64044;59.904;10.738;2024-02-26T10:55:04;9.10;66.00
74294;DHT22;64044;59.904;10.738;2024-02-26T10:57:34;9.20;66.70
74294;DHT22;64044;59.904;10.738;2024-02-26T11:00:03;9.30;65.60
74294;DHT22;64044;59.904;10.738;2024-02-26T11:02:36;9.50;65.50
74294;DHT22;64044;59.904;10.738;2024-02-26T11:05:06;9.50;64.60
74294;DHT22;64044;59.904;10.738;2024-02-26T11:07:32;9.60;64.20
74294;DHT22;64044;59.904;10.738;2024-02-26T11:10:09;9.70;64.60
74294;DHT22;64044;59.904;10.738;2024-02-26T11:12:39;9.80;63.10
74294;DHT22;64044;59.904;10.738;2024-02-26T11:15:05;9.80;63.90
74294;DHT22;64044;59.904;10.738;2024-02-26T11:17:31;10.00;63.70
74294;DHT22;64044;59.904;10.738;2024-02-26T11:19:59;10.00;63.80
74294;DHT22;64044;59.904;10.738;2024-02-26T11:22:26;10.10;63.40
74294;DHT22;64044;59.904;10.738;2024-02-26T11:24:53;10.20;63.10
74294;DHT22;64044;59.904;10.738;2024-02-26T11:27:26;10.20;62.70
74294;DHT22;64044;59.904;10.738;2024-02-26T11:29:56;10.30;62.50
74294;DHT22;64044;59.904;10.738;2024-02-26T11:32:26;10.30;62.50
74294;DHT22;64044;59.904;10.738;2024-02-26T11:34:53;10.40;62.30
74294;DHT22;64044;59.904;10.738;2024-02-26T11:37:19;10.40;61.90
74294;DHT22;64044;59.904;10.738;2024-02-26T11:39:46;10.50;61.60
74294;DHT22;64044;59.904;10.738;2024-02-26T11:42:15;10.50;61.50
74294;DHT22;64044;59.904;10.738;2024-02-26T11:44:41;10.60;61.10
74294;DHT22;64044;59.904;10.738;2024-02-26T11:47:13;10.70;61.50
74294;DHT22;64044;59.904;10.738;2024-02-26T11:49:39;10.70;60.40
74294;DHT22;64044;59.904;10.738;2024-02-26T11:52:08;10.70;60.50
74294;DHT22;64044;59.904;10.738;2024-02-26T11:54:53;10.80;60.70
74294;DHT22;64044;59.904;10.738;2024-02-26T11:57:26;11.00;60.00
74294;DHT22;64044;59.904;10.738;2024-02-26T11:59:54;11.10;60.70
74294;DHT22;64044;59.904;10.738;2024-02-26T12:05:26;11.40;58.60
74294;DHT22;64044;59.904;10.738;2024-02-26T12:08:05;11.40;58.10
74294;DHT22;64044;59.904;10.738;2024-02-26T12:10:34;11.50;58.60
74294;DHT22;64044;59.904;10.738;2024-02-26T12:13:14;11.60;60.00
74294;DHT22;64044;59.904;10.738;2024-02-26T12:15:45;11.80;59.40
74294;DHT22;64044;59.904;10.738;2024-02-26T12:18:16;12.20;60.70
74294;DHT22;64044;59.904;10.738;2024-02-26T12:20:42;12.70;60.60
74294;DHT22;64044;59.904;10.738;2024-02-26T12:23:16;13.20;60.30
74294;DHT22;64044;59.904;10.738;2024-02-26T12:25:45;13.80;59.10
74294;DHT22;64044;59.904;10.738;2024-02-26T12:28:14;14.30;58.70
74294;DHT22;64044;59.904;10.738;2024-02-26T12:30:40;14.90;57.60
74294;DHT22;64044;59.904;10.738;2024-02-26T12:33:07;15.50;57.00
74294;DHT22;64044;59.904;10.738;2024-02-26T12:35:35;16.10;55.50
74294;DHT22;64044;59.904;10.738;2024-02-26T12:38:01;16.60;54.50
74294;DHT22;64044;59.904;10.738;2024-02-26T12:40:29;17.20;53.80
74294;DHT22;64044;59.904;10.738;2024-02-26T12:42:55;17.70;53.10
74294;DHT22;64044;59.904;10.738;2024-02-26T12:45:21;18.30;51.50
74294;DHT22;64044;59.904;10.738;2024-02-26T12:47:47;18.70;49.80
74294;DHT22;64044;59.904;10.738;2024-02-26T12:50:15;19.20;49.00
74294;DHT22;64044;59.904;10.738;2024-02-26T12:52:45;19.60;46.70
74294;DHT22;64044;59.904;10.738;2024-02-26T12:55:14;20.00;45.90
74294;DHT22;64044;59.904;10.738;2024-02-26T12:57:41;20.30;45.60
74294;DHT22;64044;59.904;10.738;2024-02-26T13:00:16;20.70;45.40
74294;DHT22;64044;59.904;10.738;2024-02-26T13:02:44;21.00;43.80
74294;DHT22;64044;59.904;10.738;2024-02-26T13:05:11;21.40;44.10
74294;DHT22;64044;59.904;10.738;2024-02-26T13:07:45;21.60;43.10
74294;DHT22;64044;59.904;10.738;2024-02-26T13:10:13;21.90;41.80
74294;DHT22;64044;59.904;10.738;2024-02-26T13:12:46;22.20;42.20
74294;DHT22;64044;59.904;10.738;2024-02-26T13:15:17;22.40;39.80
74294;DHT22;64044;59.904;10.738;2024-02-26T13:17:44;22.60;38.90
74294;DHT22;64044;59.904;10.738;2024-02-26T13:20:10;22.80;39.70
74294;DHT22;64044;59.904;10.738;2024-02-26T13:22:37;23.00;39.30
74294;DHT22;64044;59.904;10.738;2024-02-26T13:25:02;23.10;38.70
74294;DHT22;64044;59.904;10.738;2024-02-26T13:27:29;23.30;38.10
74294;DHT22;64044;59.904;10.738;2024-02-26T13:30:11;23.40;37.30
74294;DHT22;64044;59.904;10.738;2024-02-26T13:32:38;23.50;34.50
74294;DHT22;64044;59.904;10.738;2024-02-26T13:35:08;23.60;36.50
74294;DHT22;64044;59.904;10.738;2024-02-26T13:37:38;23.80;34.70
74294;DHT22;64044;59.904;10.738;2024-02-26T13:40:10;23.90;34.50
74294;DHT22;64044;59.904;10.738;2024-02-26T13:42:37;24.00;34.30
74294;DHT22;64044;59.904;10.738;2024-02-26T13:45:04;24.20;34.80
74294;DHT22;64044;59.904;10.738;2024-02-26T13:47:34;24.30;35.00
74294;DHT22;64044;59.904;10.738;2024-02-26T13:50:00;24.50;34.10
74294;DHT22;64044;59.904;10.738;2024-02-26T13:52:26;24.60;34.20
74294;DHT22;64044;59.904;10.738;2024-02-26T13:54:52;24.70;33.30
74294;DHT22;64044;59.904;10.738;2024-02-26T13:57:19;24.90;32.90
74294;DHT22;64044;59.904;10.738;2024-02-26T13:59:45;24.90;32.00
74294;DHT22;64044;59.904;10.738;2024-02-26T14:02:11;25.00;31.60
74294;DHT22;64044;59.904;10.738;2024-02-26T14:04:37;25.10;32.40
74294;DHT22;64044;59.904;10.738;2024-02-26T14:07:03;25.20;30.80
74294;DHT22;64044;59.904;10.738;2024-02-26T14:09:29;25.20;30.50
74294;DHT22;64044;59.904;10.738;2024-02-26T14:11:55;25.20;29.90
74294;DHT22;64044;59.904;10.738;2024-02-26T14:14:20;25.20;29.00
74294;DHT22;64044;59.904;10.738;2024-02-26T14:16:46;25.10;29.70
74294;DHT22;64044;59.904;10.738;2024-02-26T14:19:12;25.10;29.70
74294;DHT22;64044;59.904;10.738;2024-02-26T14:21:37;25.10;29.90
74294;DHT22;64044;59.904;10.738;2024-02-26T14:24:04;25.10;29.30
74294;DHT22;64044;59.904;10.738;2024-02-26T14:26:30;25.10;29.70
74294;DHT22;64044;59.904;10.738;2024-02-26T14:28:55;25.20;29.40
74294;DHT22;64044;59.904;10.738;2024-02-26T14:31:21;25.30;29.40
74294;DHT22;64044;59.904;10.738;2024-02-26T14:33:47;25.40;29.70
74294;DHT22;64044;59.904;10.738;2024-02-26T14:36:13;25.40;29.30
74294;DHT22;64044;59.904;10.738;2024-02-26T14:38:39;25.40;28.50
74294;DHT22;64044;59.904;10.738;2024-02-26T14:41:05;25.40;28.50
74294;DHT22;64044;59.904;10.738;2024-02-26T14:43:31;25.30;28.80
74294;DHT22;64044;59.904;10.738;2024-02-26T14:45:58;25.30;28.50
74294;DHT22;64044;59.904;10.738;2024-02-26T14:48:24;25.30;28.50
74294;DHT22;64044;59.904;10.738;2024-02-26T14:50:50;25.30;28.60
74294;DHT22;64044;59.904;10.738;2024-02-26T14:53:17;25.20;28.50
74294;DHT22;64044;59.904;10.738;2024-02-26T14:55:43;25.20;27.80
74294;DHT22;64044;59.904;10.738;2024-02-26T14:58:09;25.10;27.90
74294;DHT22;64044;59.904;10.738;2024-02-26T15:00:38;25.10;28.10
74294;DHT22;64044;59.904;10.738;2024-02-26T15:03:04;25.10;28.00
74294;DHT22;64044;59.904;10.738;2024-02-26T15:05:31;25.10;28.00
74294;DHT22;64044;59.904;10.738;2024-02-26T15:07:57;25.10;27.60
74294;DHT22;64044;59.904;10.738;2024-02-26T15:10:24;25.00;27.90
74294;DHT22;64044;59.904;10.738;2024-02-26T15:12:50;25.00;28.20
74294;DHT22;64044;59.904;10.738;2024-02-26T15:15:23;25.00;28.10
74294;DHT22;64044;59.904;10.738;2024-02-26T15:17:49;24.90;27.80
74294;DHT22;64044;59.904;10.738;2024-02-26T15:20:15;24.90;28.00
74294;DHT22;64044;59.904;10.738;2024-02-26T15:22:41;24.90;28.20
74294;DHT22;64044;59.904;10.738;2024-02-26T15:25:07;24.80;27.80
74294;DHT22;64044;59.904;10.738;2024-02-26T15:27:34;24.80;27.30
74294;DHT22;64044;59.904;10.738;2024-02-26T15:30:00;24.70;27.60
74294;DHT22;64044;59.904;10.738;2024-02-26T15:32:26;24.60;28.00